createdAt,value
2022-08-02T00:01:12.056Z,43.49
2022-08-02T00:03:41.931Z,43.61
2022-08-02T00:06:11.895Z,43.50
2022-08-02T00:08:41.964Z,43.57
2022-08-02T00:11:13.379Z,43.75
2022-08-02T00:13:43.898Z,43.77
2022-08-02T00:16:16.719Z,43.65
2022-08-02T00:18:47.900Z,43.64
2022-08-02T00:21:18.026Z,43.82
2022-08-02T00:24:29.383Z,43.98
2022-08-02T00:26:40.499Z,44.08
2022-08-02T00:29:10.381Z,44.06
2022-08-02T00:31:40.489Z,44.39
2022-08-02T00:34:29.927Z,44.13
2022-08-02T00:37:00.954Z,44.35
2022-08-02T00:39:34.052Z,44.48
2022-08-02T00:42:07.294Z,44.56
2022-08-02T00:44:37.309Z,44.80
2022-08-02T00:47:07.445Z,44.60
2022-08-02T00:49:37.588Z,44.81
2022-08-02T00:52:08.283Z,44.84
2022-08-02T00:54:38.493Z,44.99
2022-08-02T00:57:09.964Z,45.09
2022-08-02T00:59:39.910Z,45.05
2022-08-02T01:02:10.347Z,45.44
2022-08-02T01:04:40.508Z,45.29
2022-08-02T01:07:13.126Z,45.38
2022-08-02T01:09:44.086Z,45.42
2022-08-02T01:12:16.550Z,45.49
2022-08-02T01:14:49.208Z,45.83
2022-08-02T01:17:24.784Z,45.49
2022-08-02T01:20:06.612Z,45.59
2022-08-02T01:23:03.663Z,45.76
2022-08-02T01:26:04.205Z,45.83
2022-08-02T01:28:40.011Z,45.89
2022-08-02T01:31:17.579Z,45.81
2022-08-02T01:33:52.997Z,45.90
2022-08-02T01:36:25.014Z,45.72
2022-08-02T01:38:57.030Z,45.97
2022-08-02T01:41:29.686Z,46.03
2022-08-02T01:44:03.109Z,46.12
2022-08-02T01:46:35.066Z,46.24
2022-08-02T01:49:09.542Z,46.38
2022-08-02T01:51:58.590Z,46.47
2022-08-02T01:54:32.419Z,46.84
2022-08-02T01:57:03.778Z,46.71
2022-08-02T01:59:36.345Z,46.91
2022-08-02T02:02:10.340Z,46.82
2022-08-02T02:04:42.115Z,46.76
2022-08-02T02:07:15.798Z,46.94
2022-08-02T02:09:50.473Z,46.87
2022-08-02T02:12:24.419Z,46.97
2022-08-02T02:14:57.266Z,47.33
2022-08-02T02:17:52.826Z,47.83
2022-08-02T02:20:21.364Z,48.18
2022-08-02T02:22:52.017Z,48.38
2022-08-02T02:25:32.941Z,48.52
2022-08-02T02:28:11.226Z,48.66
2022-08-02T02:30:49.972Z,48.78
2022-08-02T02:33:24.159Z,48.73
2022-08-02T02:35:59.327Z,48.60
2022-08-02T02:38:32.848Z,48.84
2022-08-02T02:41:04.249Z,48.92
2022-08-02T02:43:36.497Z,48.91
2022-08-02T02:46:09.767Z,49.42
2022-08-02T02:48:40.836Z,49.11
2022-08-02T02:51:13.950Z,48.89
2022-08-02T02:54:30.588Z,48.57
2022-08-02T02:56:38.137Z,48.71
2022-08-02T02:59:09.253Z,48.37
2022-08-02T03:01:57.419Z,48.88
2022-08-02T03:04:55.218Z,49.04
2022-08-02T03:07:19.562Z,49.18
2022-08-02T03:09:54.234Z,49.09
2022-08-02T03:12:31.503Z,49.46
2022-08-02T03:15:05.546Z,49.24
2022-08-02T03:17:44.923Z,49.40
2022-08-02T03:20:17.192Z,49.41
2022-08-02T03:22:48.968Z,49.62
2022-08-02T03:25:19.822Z,49.78
2022-08-02T03:27:49.749Z,49.84
2022-08-02T03:30:19.775Z,49.97
2022-08-02T03:32:51.652Z,50.01
2022-08-02T03:35:24.485Z,50.12
2022-08-02T03:37:56.864Z,50.09
2022-08-02T03:40:27.229Z,50.37
2022-08-02T03:42:57.831Z,50.78
2022-08-02T03:45:28.179Z,51.47
2022-08-02T03:47:59.877Z,51.56
2022-08-02T03:50:30.068Z,51.29
2022-08-02T03:53:00.563Z,51.37
2022-08-02T03:55:30.520Z,51.17
2022-08-02T03:58:00.694Z,51.64
2022-08-02T04:00:30.763Z,50.95
2022-08-02T04:03:03.468Z,50.53
2022-08-02T04:05:33.440Z,50.81
2022-08-02T04:08:35.165Z,50.63
2022-08-02T04:11:11.145Z,50.76
2022-08-02T04:13:42.100Z,50.61
2022-08-02T04:16:17.288Z,50.20
2022-08-02T04:18:55.156Z,50.74
2022-08-02T04:21:48.517Z,51.00
2022-08-02T04:24:24.513Z,51.23
2022-08-02T04:26:57.845Z,50.98
2022-08-02T04:29:34.284Z,51.03
2022-08-02T04:32:06.057Z,50.98
2022-08-02T04:34:37.432Z,50.93
2022-08-02T04:37:08.268Z,51.12
2022-08-02T04:39:38.276Z,51.42
2022-08-02T04:42:09.058Z,51.75
2022-08-02T04:44:39.219Z,51.92
2022-08-02T04:47:09.764Z,51.67
2022-08-02T04:49:41.115Z,50.62
2022-08-02T04:52:11.462Z,50.39
2022-08-02T04:54:41.597Z,50.62
2022-08-02T04:57:26.149Z,50.62
2022-08-02T04:59:57.383Z,50.21
2022-08-02T05:02:27.479Z,49.86
2022-08-02T05:04:58.845Z,49.26
2022-08-02T05:07:29.389Z,48.66
2022-08-02T05:10:06.952Z,48.85
2022-08-02T05:12:38.958Z,48.14
2022-08-02T05:15:12.728Z,48.48
2022-08-02T05:17:47.404Z,48.34
2022-08-02T05:20:20.206Z,47.31
2022-08-02T05:22:50.128Z,47.08
2022-08-02T05:25:20.084Z,46.61
2022-08-02T05:27:50.004Z,46.49
2022-08-02T05:30:20.091Z,46.42
2022-08-02T05:32:52.651Z,46.05
2022-08-02T05:35:25.859Z,45.70
2022-08-02T05:37:55.719Z,45.64
2022-08-02T05:40:26.294Z,45.38
2022-08-02T05:42:56.515Z,45.55
2022-08-02T05:45:27.025Z,45.28
2022-08-02T05:47:57.412Z,45.20
2022-08-02T05:50:28.763Z,44.82
2022-08-02T05:53:05.236Z,43.79
2022-08-02T05:55:36.937Z,44.10
2022-08-02T05:58:14.424Z,43.63
2022-08-02T06:00:46.453Z,43.68
2022-08-02T06:03:23.560Z,43.55
2022-08-02T06:06:01.311Z,43.23
2022-08-02T06:08:34.615Z,42.70
2022-08-02T06:11:07.581Z,42.70
2022-08-02T06:13:38.808Z,42.56
2022-08-02T06:16:14.180Z,42.80
2022-08-02T06:18:45.590Z,41.93
2022-08-02T06:22:31.917Z,41.61
2022-08-02T06:24:09.746Z,41.11
2022-08-02T06:26:40.048Z,41.55
2022-08-02T06:29:10.523Z,41.63
2022-08-02T06:31:42.514Z,41.58
2022-08-02T06:34:15.223Z,41.06
2022-08-02T06:36:57.266Z,41.70
2022-08-02T06:39:34.139Z,42.05
2022-08-02T06:42:09.875Z,40.30
2022-08-02T06:44:50.036Z,40.19
2022-08-02T06:47:22.929Z,40.25
2022-08-02T06:49:54.183Z,40.04
2022-08-02T06:52:30.001Z,40.29
2022-08-02T06:55:01.655Z,40.21
2022-08-02T06:57:32.125Z,39.87
2022-08-02T07:00:05.043Z,40.26
2022-08-02T07:02:36.478Z,39.60
2022-08-02T07:05:07.424Z,39.85
2022-08-02T07:07:38.830Z,40.01
2022-08-02T07:10:09.840Z,39.67
2022-08-02T07:12:40.164Z,39.39
2022-08-02T07:15:12.605Z,39.29
2022-08-02T07:17:42.518Z,39.94
2022-08-02T07:20:13.586Z,39.90
2022-08-02T07:22:44.987Z,39.93
2022-08-02T07:25:14.996Z,40.10
2022-08-02T07:27:45.272Z,39.30
2022-08-02T07:30:15.299Z,39.10
2022-08-02T07:32:45.494Z,38.94
2022-08-02T07:35:16.377Z,38.73
2022-08-02T07:37:54.859Z,38.86
2022-08-02T07:40:27.363Z,38.93
2022-08-02T07:43:03.334Z,38.85
2022-08-02T07:45:36.074Z,38.35
2022-08-02T07:48:15.826Z,38.26
2022-08-02T07:50:46.792Z,38.44
2022-08-02T07:53:18.315Z,38.30
2022-08-02T07:55:48.247Z,38.23
2022-08-02T07:58:18.290Z,38.14
2022-08-02T08:00:48.318Z,37.90
2022-08-02T08:03:18.178Z,38.03
2022-08-02T08:05:49.380Z,38.26
2022-08-02T08:08:21.099Z,38.36
2022-08-02T08:10:51.156Z,37.54
2022-08-02T08:13:21.328Z,37.77
2022-08-02T08:15:52.725Z,37.68
2022-08-02T08:18:23.539Z,37.66
2022-08-02T08:20:53.538Z,36.93
2022-08-02T08:23:25.987Z,36.64
2022-08-02T08:25:55.857Z,36.67
2022-08-02T08:28:25.793Z,37.71
2022-08-02T08:30:55.808Z,37.12
2022-08-02T08:33:25.912Z,36.76
2022-08-02T08:35:56.448Z,36.83
2022-08-02T08:38:28.662Z,36.46
2022-08-02T08:40:58.952Z,37.26
2022-08-02T08:43:28.786Z,35.47
2022-08-02T08:45:58.757Z,35.99
2022-08-02T08:48:31.756Z,36.61
2022-08-02T08:51:08.317Z,36.78
2022-08-02T08:53:44.262Z,36.28
2022-08-02T08:56:16.756Z,36.95
2022-08-02T08:58:48.561Z,36.75
2022-08-02T09:01:18.689Z,36.78
2022-08-02T09:03:48.685Z,36.36
2022-08-02T09:06:18.939Z,35.91
2022-08-02T09:08:50.426Z,36.64
2022-08-02T09:11:24.469Z,37.42
2022-08-02T09:13:56.689Z,36.66
2022-08-02T09:16:35.615Z,37.89
2022-08-02T09:19:19.493Z,37.61
2022-08-02T09:21:50.836Z,36.46
2022-08-02T09:24:23.711Z,36.06
2022-08-02T09:26:53.761Z,35.84
2022-08-02T09:29:26.184Z,36.20
2022-08-02T09:32:04.815Z,36.93
2022-08-02T09:34:53.352Z,35.87
2022-08-02T09:37:25.302Z,35.23
2022-08-02T09:39:59.861Z,35.75
2022-08-02T09:42:30.723Z,35.42
2022-08-02T09:45:03.528Z,35.27
2022-08-02T09:47:37.270Z,35.12
2022-08-02T09:50:13.318Z,35.27
2022-08-02T09:52:45.069Z,36.02
2022-08-02T09:55:16.619Z,35.79
2022-08-02T09:57:50.983Z,35.34
2022-08-02T10:00:37.233Z,35.45
2022-08-02T10:03:21.617Z,35.28
2022-08-02T10:05:56.191Z,34.46
2022-08-02T10:08:34.007Z,35.46
2022-08-02T10:11:05.746Z,35.58
2022-08-02T10:13:37.432Z,34.42
2022-08-02T10:16:07.806Z,34.90
2022-08-02T10:18:39.804Z,34.29
2022-08-02T10:21:15.731Z,33.13
2022-08-02T10:23:47.445Z,34.37
2022-08-02T10:26:22.133Z,33.49
2022-08-02T10:28:55.173Z,33.14
2022-08-02T10:31:28.897Z,32.92
2022-08-02T10:34:01.200Z,33.60
2022-08-02T10:36:33.643Z,33.56
2022-08-02T10:39:04.038Z,33.24
2022-08-02T10:41:50.223Z,33.92
2022-08-02T10:44:25.960Z,34.33
2022-08-02T10:47:24.464Z,34.04
2022-08-02T10:49:56.234Z,34.09
2022-08-02T10:52:26.904Z,33.63
2022-08-02T10:54:58.439Z,34.83
2022-08-02T10:57:31.995Z,34.48
2022-08-02T11:00:05.258Z,35.50
2022-08-02T11:02:41.119Z,36.22
2022-08-02T11:05:13.367Z,34.58
2022-08-02T11:07:47.427Z,34.95
2022-08-02T11:10:38.657Z,33.85
2022-08-02T11:13:13.995Z,33.93
2022-08-02T11:15:58.929Z,34.01
2022-08-02T11:19:03.673Z,32.76
2022-08-02T11:21:37.664Z,33.37
2022-08-02T11:24:28.766Z,33.34
2022-08-02T11:27:01.576Z,33.83
2022-08-02T11:29:40.861Z,33.08
2022-08-02T11:32:18.353Z,33.86
2022-08-02T11:34:50.721Z,34.24
2022-08-02T11:37:30.155Z,35.27
2022-08-02T11:40:00.144Z,35.90
2022-08-02T11:42:34.062Z,35.44
2022-08-02T11:45:08.381Z,35.51
2022-08-02T11:47:47.278Z,34.02
2022-08-02T11:50:18.411Z,33.66
2022-08-02T11:52:48.757Z,33.68
2022-08-02T11:55:18.745Z,33.01
2022-08-02T11:58:04.808Z,33.39
2022-08-02T12:00:37.158Z,32.73
2022-08-02T12:03:08.760Z,33.50
2022-08-02T12:06:04.931Z,33.12
2022-08-02T12:08:30.069Z,33.08
2022-08-02T12:11:03.934Z,33.12
2022-08-02T12:13:45.013Z,33.08
2022-08-02T12:16:52.621Z,33.80
2022-08-02T12:19:26.537Z,34.11
2022-08-02T12:22:12.581Z,33.61
2022-08-02T12:24:44.412Z,34.65
2022-08-02T12:27:30.368Z,33.43
2022-08-02T12:30:02.778Z,33.75
2022-08-02T12:32:34.271Z,34.39
2022-08-02T12:35:12.348Z,34.08
2022-08-02T12:37:45.629Z,34.73
2022-08-02T12:40:27.245Z,33.56
2022-08-02T12:42:59.098Z,33.33
2022-08-02T12:45:38.380Z,32.37
2022-08-02T12:48:14.041Z,33.59
2022-08-02T12:50:44.390Z,33.42
2022-08-02T12:53:16.702Z,33.61
2022-08-02T12:56:00.039Z,32.94
2022-08-02T12:58:47.290Z,33.58
2022-08-02T13:01:22.709Z,32.94
2022-08-02T13:04:12.214Z,33.40
2022-08-02T13:06:45.153Z,32.88
2022-08-02T13:09:17.976Z,33.35
2022-08-02T13:11:48.364Z,32.31
2022-08-02T13:14:18.610Z,32.73
2022-08-02T13:16:49.324Z,33.20
2022-08-02T13:19:20.808Z,33.54
2022-08-02T13:22:02.277Z,32.86
2022-08-02T13:24:40.150Z,33.51
2022-08-02T13:27:24.178Z,32.66
2022-08-02T13:29:55.055Z,33.05
2022-08-02T13:32:26.494Z,33.37
2022-08-02T13:34:58.340Z,34.55
2022-08-02T13:37:28.530Z,32.45
2022-08-02T13:40:20.455Z,32.75
2022-08-02T13:42:50.038Z,32.11
2022-08-02T13:45:19.977Z,33.37
2022-08-02T13:48:04.775Z,32.77
2022-08-02T13:50:36.822Z,33.14
2022-08-02T13:53:06.985Z,34.13
2022-08-02T13:55:37.356Z,33.45
2022-08-02T13:58:13.481Z,34.12
2022-08-02T14:00:43.372Z,33.14
2022-08-02T14:03:13.332Z,33.73
2022-08-02T14:05:48.431Z,33.65
2022-08-02T14:08:20.380Z,33.89
2022-08-02T14:10:51.799Z,34.23
2022-08-02T14:13:22.041Z,34.81
2022-08-02T14:15:52.733Z,34.45
2022-08-02T14:18:22.619Z,34.68
2022-08-02T14:20:53.877Z,35.21
2022-08-02T14:23:49.639Z,35.35
2022-08-02T14:26:26.861Z,35.25
2022-08-02T14:28:58.004Z,34.87
2022-08-02T14:31:28.947Z,34.78
2022-08-02T14:33:58.890Z,34.59
2022-08-02T14:36:30.343Z,34.76
2022-08-02T14:39:01.596Z,34.62
2022-08-02T14:41:34.024Z,34.85
2022-08-02T14:44:23.756Z,34.59
2022-08-02T14:46:54.702Z,34.99
2022-08-02T14:49:26.778Z,34.49
2022-08-02T14:51:58.631Z,35.40
2022-08-02T14:54:31.570Z,34.58
2022-08-02T14:57:04.787Z,35.18
2022-08-02T14:59:34.987Z,34.37
2022-08-02T15:02:05.520Z,34.74
2022-08-02T15:04:42.874Z,34.96
2022-08-02T15:07:15.745Z,34.41
2022-08-02T15:09:45.669Z,34.49
2022-08-02T15:12:16.889Z,34.62
2022-08-02T15:14:47.453Z,34.89
2022-08-02T15:17:17.404Z,34.98
2022-08-02T15:19:57.776Z,34.55
2022-08-02T15:22:32.384Z,34.39
2022-08-02T15:25:03.020Z,34.85
2022-08-02T15:27:34.378Z,34.45
2022-08-02T15:30:10.046Z,34.72
2022-08-02T15:32:40.552Z,34.46
2022-08-02T15:35:25.342Z,34.00
2022-08-02T15:37:56.808Z,34.58
2022-08-02T15:40:27.023Z,34.51
2022-08-02T15:42:56.917Z,34.65
2022-08-02T15:45:27.886Z,35.26
2022-08-02T15:47:58.011Z,35.69
2022-08-02T15:50:28.473Z,36.19
2022-08-02T15:52:59.883Z,36.65
2022-08-02T15:55:30.242Z,35.73
2022-08-02T15:58:22.562Z,33.96
2022-08-02T16:00:53.006Z,34.67
2022-08-02T16:03:23.403Z,34.54
2022-08-02T16:05:53.616Z,34.31
2022-08-02T16:08:24.956Z,35.23
2022-08-02T16:10:54.827Z,34.96
2022-08-02T16:13:53.107Z,35.74
2022-08-02T16:16:25.619Z,35.26
2022-08-02T16:18:55.847Z,35.09
2022-08-02T16:21:26.053Z,35.91
2022-08-02T16:24:02.259Z,35.87
2022-08-02T16:26:34.370Z,34.43
2022-08-02T16:29:06.075Z,35.18
2022-08-02T16:31:41.579Z,35.03
2022-08-02T16:34:12.862Z,35.44
2022-08-02T16:36:42.954Z,36.12
2022-08-02T16:39:14.506Z,35.85
2022-08-02T16:41:51.949Z,35.41
2022-08-02T16:44:29.237Z,35.49
2022-08-02T16:47:01.496Z,35.16
2022-08-02T16:50:04.901Z,35.36
2022-08-02T16:52:21.863Z,35.58
2022-08-02T16:54:53.141Z,35.91
2022-08-02T16:57:23.240Z,35.69
2022-08-02T17:00:08.605Z,35.68
2022-08-02T17:02:40.889Z,35.76
2022-08-02T17:05:14.311Z,35.53
2022-08-02T17:08:15.268Z,35.71
2022-08-02T17:10:37.555Z,36.10
2022-08-02T17:13:10.772Z,35.61
2022-08-02T17:16:16.092Z,35.59
2022-08-02T17:18:34.766Z,35.55
2022-08-02T17:21:14.086Z,36.38
2022-08-02T17:24:08.388Z,36.53
2022-08-02T17:26:40.080Z,37.17
2022-08-02T17:29:15.945Z,37.14
2022-08-02T17:32:04.742Z,37.43
2022-08-02T17:34:36.752Z,37.43
2022-08-02T17:37:06.923Z,37.88
2022-08-02T17:42:30.005Z,38.66
2022-08-02T17:48:04.788Z,37.94
2022-08-02T17:50:35.757Z,39.36
2022-08-02T17:53:06.222Z,39.68
2022-08-02T17:55:42.275Z,39.62
2022-08-02T17:58:13.853Z,38.34
2022-08-02T18:00:44.901Z,39.66
2022-08-02T18:03:15.288Z,38.92
2022-08-02T18:05:53.429Z,38.64
2022-08-02T18:08:25.485Z,39.58
2022-08-02T18:10:55.961Z,39.25
2022-08-02T18:16:21.263Z,38.87
2022-08-02T18:18:52.763Z,39.18
2022-08-02T18:21:22.953Z,39.97
2022-08-02T18:26:43.725Z,39.54
2022-08-02T18:29:15.419Z,40.53
2022-08-02T18:31:51.165Z,40.97
2022-08-02T18:34:24.155Z,40.93
2022-08-02T18:36:54.300Z,41.26
2022-08-02T18:39:25.752Z,40.18
2022-08-02T18:42:02.943Z,40.74
2022-08-02T18:44:34.253Z,41.29
2022-08-02T18:47:04.999Z,39.19
2022-08-02T18:49:46.530Z,39.45
2022-08-02T18:52:31.419Z,40.57
2022-08-02T18:55:01.529Z,40.76
2022-08-02T19:00:25.899Z,40.81
2022-08-02T19:02:56.702Z,40.57
2022-08-02T19:05:53.740Z,40.72
2022-08-02T19:08:18.102Z,40.55
2022-08-02T19:10:49.441Z,41.09
2022-08-02T19:13:20.466Z,40.64
2022-08-02T19:15:53.643Z,40.86
2022-08-02T19:18:26.999Z,40.42
2022-08-02T19:21:05.768Z,40.75
2022-08-02T19:23:37.443Z,41.02
2022-08-02T19:26:24.566Z,41.60
2022-08-02T19:28:55.813Z,41.79
2022-08-02T19:31:34.752Z,41.35
2022-08-02T19:34:20.475Z,41.68
2022-08-02T19:36:55.053Z,41.78
2022-08-02T19:39:25.028Z,41.97
2022-08-02T19:41:57.169Z,42.58
2022-08-02T19:44:29.511Z,42.29
2022-08-02T19:47:01.084Z,42.31
2022-08-02T19:49:40.320Z,42.66
2022-08-02T19:52:21.226Z,42.75
2022-08-02T19:54:55.433Z,42.75
2022-08-02T19:57:26.559Z,42.56
2022-08-02T19:59:58.582Z,42.86
2022-08-02T20:02:30.298Z,42.82
2022-08-02T20:05:08.025Z,43.07
2022-08-02T20:07:54.491Z,43.34
2022-08-02T20:10:25.384Z,43.96
2022-08-02T20:12:56.950Z,43.92
2022-08-02T20:15:56.477Z,44.47
2022-08-02T20:21:18.847Z,44.69
2022-08-02T20:23:59.755Z,44.81
2022-08-02T20:26:30.524Z,44.83
2022-08-02T20:29:02.562Z,45.09
2022-08-02T20:31:33.090Z,44.95
2022-08-02T20:34:04.504Z,44.81
2022-08-02T20:36:38.246Z,45.31
2022-08-02T20:39:08.422Z,45.17
2022-08-02T20:41:46.397Z,45.32
2022-08-02T20:44:31.079Z,45.19
2022-08-02T20:47:02.125Z,45.47
2022-08-02T20:49:40.931Z,45.51
2022-08-02T20:52:24.200Z,45.42
2022-08-02T20:54:54.762Z,45.93
2022-08-02T20:57:49.135Z,45.57
2022-08-02T21:00:16.720Z,45.85
2022-08-02T21:02:46.957Z,45.62
2022-08-02T21:05:18.915Z,45.54
2022-08-02T21:07:53.472Z,45.41
2022-08-02T21:10:24.811Z,45.70
2022-08-02T21:12:55.677Z,45.82
2022-08-02T21:15:26.808Z,45.60
2022-08-02T21:18:01.294Z,45.68
2022-08-02T21:20:35.973Z,45.63
2022-08-02T21:23:06.029Z,45.79
2022-08-02T21:25:57.143Z,45.76
2022-08-02T21:28:43.763Z,46.06
2022-08-02T21:31:16.059Z,46.59
2022-08-02T21:33:58.651Z,46.87
2022-08-02T21:36:33.244Z,46.58
2022-08-02T21:39:09.113Z,46.61
2022-08-02T21:41:47.077Z,46.88
2022-08-02T21:44:18.463Z,46.87
2022-08-02T21:46:49.992Z,46.91
2022-08-02T21:49:21.065Z,47.05
2022-08-02T21:52:12.204Z,46.96
2022-08-02T21:54:45.482Z,47.54
2022-08-02T21:57:16.687Z,47.33
2022-08-02T21:59:48.294Z,47.16
2022-08-02T22:02:30.462Z,47.29
2022-08-02T22:05:01.938Z,47.50
2022-08-02T22:07:38.623Z,47.67
2022-08-02T22:10:10.239Z,47.68
2022-08-02T22:12:40.657Z,47.74
2022-08-02T22:15:11.984Z,47.69
2022-08-02T22:17:53.403Z,47.83
2022-08-02T22:20:29.772Z,47.57
2022-08-02T22:23:01.277Z,47.57
2022-08-02T22:25:37.360Z,47.72
2022-08-02T22:28:37.983Z,47.97
2022-08-02T22:31:00.162Z,48.04
2022-08-02T22:34:00.946Z,48.12
2022-08-02T22:36:32.930Z,48.72
2022-08-02T22:39:19.163Z,48.78
2022-08-02T22:42:05.365Z,49.08
2022-08-02T22:44:39.363Z,48.82
2022-08-02T22:47:15.238Z,49.31
2022-08-02T22:49:53.248Z,49.39
2022-08-02T22:52:25.968Z,49.88
2022-08-02T22:54:57.321Z,49.52
2022-08-02T22:58:40.203Z,38.26
2022-08-02T22:58:44.031Z,40.07
2022-08-02T22:58:46.369Z,40.59
2022-08-02T22:58:49.821Z,38.46
2022-08-02T22:58:55.200Z,44.34
2022-08-02T22:58:59.954Z,39.37
2022-08-02T23:00:17.976Z,49.86
2022-08-02T23:02:48.132Z,49.80
2022-08-02T23:05:18.200Z,50.29
2022-08-02T23:07:48.327Z,50.26
2022-08-02T23:10:19.743Z,50.20
2022-08-02T23:12:50.021Z,50.39
2022-08-02T23:15:20.182Z,50.08
2022-08-02T23:18:07.159Z,50.17
2022-08-02T23:20:37.480Z,50.50
2022-08-02T23:23:11.848Z,50.68
2022-08-02T23:25:43.297Z,50.89
2022-08-02T23:28:13.103Z,50.61
2022-08-02T23:30:42.984Z,50.77
2022-08-02T23:33:14.718Z,50.77
2022-08-02T23:35:45.160Z,50.58
2022-08-02T23:38:15.266Z,50.73
2022-08-02T23:40:46.620Z,50.72
2022-08-02T23:43:19.093Z,50.64
2022-08-02T23:45:49.054Z,51.05
2022-08-02T23:48:19.034Z,51.47
2022-08-02T23:50:49.097Z,51.73
2022-08-02T23:53:18.959Z,51.50
2022-08-02T23:55:50.216Z,51.50
2022-08-02T23:58:20.095Z,51.62
